Time;durP1;ratioP1;P1;durP2;ratioP2;P2;SDS_P1;SDS_P2;PMS_P1;PMS_P2;Temp;Humidity;BMP_temperature;BMP_pressure;BME280_temperature;BME280_humidity;BME280_pressure;Samples;Min_cycle;Max_cycle;Signal;HPM_P1;HPM_P2
2023/07/28 00:00:01;;;;;;;4.50;2.47;;;14.50;99.90;;;;;;5025666;28;20192;-83
2023/07/28 00:02:36;;;;;;;4.43;2.05;;;14.50;99.90;;;;;;5024318;28;20205;-83
2023/07/28 00:05:04;;;;;;;5.70;2.85;;;14.50;99.90;;;;;;5024159;28;20221;-83
2023/07/28 00:07:35;;;;;;;4.40;2.35;;;14.60;99.90;;;;;;5023432;28;20221;-84
2023/07/28 00:10:03;;;;;;;4.07;2.22;;;14.50;99.90;;;;;;5021177;28;20197;-83
2023/07/28 00:12:30;;;;;;;2.90;2.28;;;14.60;99.90;;;;;;5022735;28;20198;-84
2023/07/28 00:14:59;;;;;;;5.28;2.28;;;14.60;99.90;;;;;;5028353;28;20183;-83
2023/07/28 00:17:27;;;;;;;5.57;2.22;;;14.60;99.90;;;;;;5022812;28;20201;-82
2023/07/28 00:19:55;;;;;;;9.98;2.83;;;14.60;99.90;;;;;;5024123;28;20194;-83
2023/07/28 00:22:22;;;;;;;7.00;2.30;;;14.50;99.90;;;;;;5027490;28;20202;-84
2023/07/28 00:24:50;;;;;;;7.80;2.38;;;14.60;99.90;;;;;;5026560;28;20256;-83
2023/07/28 00:27:18;;;;;;;13.23;2.90;;;14.60;99.90;;;;;;5030654;28;20246;-82
2023/07/28 00:29:46;;;;;;;7.72;2.03;;;14.50;99.90;;;;;;5028180;28;20235;-83
2023/07/28 00:32:13;;;;;;;4.55;1.80;;;14.50;99.90;;;;;;5036573;28;20648;-84
2023/07/28 00:34:42;;;;;;;4.68;2.30;;;14.40;99.90;;;;;;5030422;28;20288;-83
2023/07/28 00:37:11;;;;;;;9.05;2.70;;;14.50;99.90;;;;;;5031483;28;20201;-82
2023/07/28 00:39:40;;;;;;;5.85;2.55;;;14.50;99.90;;;;;;5025063;28;20652;-84
2023/07/28 00:42:09;;;;;;;6.85;2.17;;;14.30;99.90;;;;;;5024994;28;20190;-83
2023/07/28 00:44:37;;;;;;;7.88;2.38;;;14.20;99.90;;;;;;5025867;28;20225;-83
2023/07/28 00:47:05;;;;;;;5.38;2.20;;;14.30;99.90;;;;;;5032955;27;20202;-83
2023/07/28 00:49:33;;;;;;;2.83;2.17;;;14.30;99.90;;;;;;5037937;28;20268;-84
2023/07/28 00:52:01;;;;;;;5.65;2.58;;;14.40;99.90;;;;;;5016569;28;20560;-83
2023/07/28 00:54:30;;;;;;;5.55;2.40;;;14.40;99.90;;;;;;5025214;28;20217;-84
2023/07/28 00:56:57;;;;;;;7.40;2.83;;;14.40;99.90;;;;;;5031638;28;20193;-83
2023/07/28 00:59:26;;;;;;;8.18;2.20;;;14.40;99.90;;;;;;5024955;28;20213;-84
2023/07/28 01:01:53;;;;;;;5.15;2.30;;;14.40;99.90;;;;;;5006102;28;20277;-83
2023/07/28 01:04:21;;;;;;;5.97;2.22;;;14.30;99.90;;;;;;5021309;28;20757;-83
2023/07/28 01:07:05;;;;;;;5.80;2.20;;;14.30;99.90;;;;;;5040833;28;20221;-84
2023/07/28 01:09:53;;;;;;;4.55;1.73;;;14.30;99.90;;;;;;5017652;28;20528;-84
2023/07/28 01:12:23;;;;;;;5.07;2.33;;;14.30;99.90;;;;;;5021198;28;20198;-83
2023/07/28 01:14:51;;;;;;;6.45;2.00;;;14.30;99.90;;;;;;5023526;28;20202;-83
2023/07/28 01:17:19;;;;;;;5.28;2.13;;;14.20;99.90;;;;;;5024589;28;20198;-83
2023/07/28 01:19:47;;;;;;;8.63;2.97;;;14.00;99.90;;;;;;5025455;28;20277;-84
2023/07/28 01:22:29;;;;;;;6.47;2.15;;;14.00;99.90;;;;;;5032185;28;20556;-83
2023/07/28 01:25:19;;;;;;;7.47;2.63;;;13.90;99.90;;;;;;5040188;28;20564;-83
2023/07/28 01:27:48;;;;;;;7.93;2.17;;;14.00;99.90;;;;;;5025668;28;20235;-83
2023/07/28 01:30:16;;;;;;;4.57;2.00;;;14.10;99.90;;;;;;5028176;28;20603;-83
2023/07/28 01:32:44;;;;;;;6.43;2.35;;;14.10;99.90;;;;;;5022870;28;20217;-83
2023/07/28 01:35:12;;;;;;;6.80;2.30;;;14.10;99.90;;;;;;5027776;28;20242;-83
2023/07/28 01:37:40;;;;;;;4.40;2.13;;;14.20;99.90;;;;;;5011577;28;20189;-83
2023/07/28 01:40:08;;;;;;;3.78;2.08;;;14.20;99.90;;;;;;5029927;28;20220;-83
2023/07/28 01:42:36;;;;;;;4.00;1.80;;;14.20;99.90;;;;;;5009588;28;20204;-84
2023/07/28 01:45:04;;;;;;;4.25;2.40;;;14.20;99.90;;;;;;5038588;28;20321;-83
2023/07/28 01:47:32;;;;;;;5.03;2.05;;;14.20;99.90;;;;;;5028118;28;20197;-84
2023/07/28 01:49:59;;;;;;;7.13;1.95;;;14.20;99.90;;;;;;5065998;27;20225;-83
2023/07/28 01:52:27;;;;;;;6.28;2.25;;;14.20;99.90;;;;;;5028057;28;20186;-83
2023/07/28 01:54:55;;;;;;;4.05;2.00;;;14.20;99.90;;;;;;5028847;28;20193;-83
2023/07/28 01:57:27;;;;;;;7.95;2.70;;;14.10;99.90;;;;;;5028167;28;20212;-84
2023/07/28 01:59:54;;;;;;;5.80;2.50;;;14.00;99.90;;;;;;5020633;28;20286;-83
2023/07/28 02:02:22;;;;;;;5.75;2.10;;;14.00;99.90;;;;;;5028043;28;20186;-83
2023/07/28 02:04:50;;;;;;;8.98;2.20;;;13.90;99.90;;;;;;5038138;28;20699;-83
2023/07/28 02:07:18;;;;;;;3.22;1.90;;;13.90;99.90;;;;;;5027534;28;20867;-84
2023/07/28 02:09:45;;;;;;;7.78;2.15;;;13.90;99.90;;;;;;5034713;28;20186;-83
2023/07/28 02:12:13;;;;;;;5.47;1.98;;;13.90;99.90;;;;;;5028439;28;20196;-84
2023/07/28 02:14:41;;;;;;;5.65;2.20;;;13.90;99.90;;;;;;5009051;28;20281;-83
2023/07/28 02:17:09;;;;;;;6.22;2.08;;;13.90;99.90;;;;;;5041125;28;20198;-83
2023/07/28 02:19:37;;;;;;;8.23;2.30;;;13.90;99.90;;;;;;5037332;28;20568;-83
2023/07/28 02:22:05;;;;;;;5.57;2.15;;;13.90;99.90;;;;;;5027306;28;20208;-84
2023/07/28 02:24:34;;;;;;;3.00;1.90;;;13.90;99.90;;;;;;5036023;28;20722;-84
2023/07/28 02:27:01;;;;;;;6.82;2.28;;;13.90;99.90;;;;;;5026969;28;20957;-83
2023/07/28 02:29:29;;;;;;;3.65;2.00;;;13.90;99.90;;;;;;5010627;28;20190;-83
2023/07/28 02:31:57;;;;;;;7.07;2.15;;;13.90;99.90;;;;;;5042236;28;20182;-83
2023/07/28 02:34:24;;;;;;;3.50;1.80;;;13.80;99.90;;;;;;5026652;28;20202;-83
2023/07/28 02:36:52;;;;;;;2.60;1.90;;;13.80;99.90;;;;;;5027393;28;20201;-83
2023/07/28 02:39:20;;;;;;;5.45;1.77;;;13.70;99.90;;;;;;5028117;28;20274;-83
2023/07/28 02:41:48;;;;;;;3.35;2.00;;;13.60;99.90;;;;;;5027170;28;20198;-83
2023/07/28 02:44:15;;;;;;;3.92;1.80;;;13.60;99.90;;;;;;5027831;28;20225;-83
2023/07/28 02:46:43;;;;;;;4.28;1.60;;;13.60;99.90;;;;;;5007068;28;20210;-83
2023/07/28 02:49:11;;;;;;;8.02;2.30;;;13.60;99.90;;;;;;5032694;28;20226;-84
2023/07/28 02:51:41;;;;;;;2.15;1.58;;;13.60;99.90;;;;;;5021321;28;20284;-83
2023/07/28 02:54:10;;;;;;;2.38;1.65;;;13.50;99.90;;;;;;5026033;28;20186;-83
2023/07/28 02:56:38;;;;;;;4.75;1.63;;;13.50;99.90;;;;;;5027116;28;20205;-83
2023/07/28 02:59:10;;;;;;;4.47;1.95;;;13.50;99.90;;;;;;5027190;28;20190;-83
2023/07/28 03:01:38;;;;;;;7.57;2.10;;;13.50;99.90;;;;;;5026520;28;20216;-83
2023/07/28 03:04:06;;;;;;;5.85;1.75;;;13.40;99.90;;;;;;5034252;28;20250;-83
2023/07/28 03:06:53;;;;;;;5.57;1.63;;;13.40;99.90;;;;;;5027535;28;20656;-83
2023/07/28 03:09:21;;;;;;;4.57;1.75;;;13.50;99.90;;;;;;5014646;28;20202;-83
2023/07/28 03:12:01;;;;;;;6.00;1.90;;;13.40;99.90;;;;;;5037395;28;20205;-83
2023/07/28 03:14:29;;;;;;;4.80;1.90;;;13.30;99.90;;;;;;5027034;28;20217;-83
2023/07/28 03:16:56;;;;;;;4.50;2.22;;;13.00;99.90;;;;;;5029532;28;20194;-85
2023/07/28 03:19:26;;;;;;;5.05;2.22;;;12.70;99.90;;;;;;5026468;28;20202;-85
2023/07/28 03:21:54;;;;;;;5.18;2.15;;;12.60;99.90;;;;;;5027130;28;20549;-84
2023/07/28 03:24:21;;;;;;;5.90;1.95;;;12.60;99.90;;;;;;5030041;28;20263;-85
2023/07/28 03:26:49;;;;;;;3.33;2.10;;;12.50;99.90;;;;;;5027381;28;20653;-85
2023/07/28 03:29:18;;;;;;;4.80;1.48;;;12.80;99.90;;;;;;5024648;28;20815;-84
2023/07/28 03:31:46;;;;;;;4.35;1.52;;;13.00;99.90;;;;;;5021862;28;20235;-84
2023/07/28 03:34:14;;;;;;;5.63;1.83;;;13.20;99.90;;;;;;5022811;28;20563;-85
2023/07/28 03:36:42;;;;;;;5.47;1.83;;;13.30;99.90;;;;;;5030664;28;20544;-84
2023/07/28 03:39:10;;;;;;;3.75;1.48;;;13.20;99.90;;;;;;5021960;28;20207;-84
2023/07/28 03:41:38;;;;;;;2.13;1.55;;;13.30;99.90;;;;;;5027792;28;20190;-84
2023/07/28 03:44:06;;;;;;;3.55;1.33;;;13.30;99.90;;;;;;5025839;28;20323;-84
2023/07/28 03:46:33;;;;;;;2.33;1.52;;;13.30;99.90;;;;;;5020087;28;20190;-84
2023/07/28 03:49:02;;;;;;;8.65;1.77;;;13.30;99.90;;;;;;5039471;28;20200;-83
2023/07/28 03:51:29;;;;;;;3.15;1.40;;;13.20;99.90;;;;;;5008816;28;20194;-84
2023/07/28 03:53:57;;;;;;;3.88;1.40;;;13.20;99.90;;;;;;5027203;28;20197;-85
2023/07/28 03:56:25;;;;;;;3.10;1.42;;;13.30;99.90;;;;;;5025715;28;20891;-84
2023/07/28 03:58:54;;;;;;;6.35;1.77;;;13.30;99.90;;;;;;5036217;28;20182;-85
2023/07/28 04:01:22;;;;;;;3.17;1.73;;;13.40;99.90;;;;;;5026965;28;20568;-84
2023/07/28 04:03:50;;;;;;;4.28;1.50;;;13.40;99.90;;;;;;5027073;27;20178;-84
2023/07/28 04:06:18;;;;;;;4.55;1.38;;;13.40;99.90;;;;;;5025219;28;20218;-84
2023/07/28 04:08:45;;;;;;;2.53;1.50;;;13.40;99.90;;;;;;5027063;28;20694;-85
2023/07/28 04:11:13;;;;;;;5.22;1.50;;;13.40;99.90;;;;;;5028486;28;20206;-84
2023/07/28 04:13:41;;;;;;;4.00;1.70;;;13.30;99.90;;;;;;5029009;28;20197;-86
2023/07/28 04:16:09;;;;;;;5.25;1.50;;;13.30;99.90;;;;;;5028209;28;20186;-84
2023/07/28 04:18:37;;;;;;;4.50;1.50;;;13.20;99.90;;;;;;5027284;28;20551;-85
2023/07/28 04:21:05;;;;;;;4.15;1.80;;;13.30;99.90;;;;;;5026112;28;20200;-85
2023/07/28 04:23:33;;;;;;;4.80;1.70;;;13.20;99.90;;;;;;5022153;28;20834;-83
2023/07/28 04:26:01;;;;;;;6.85;1.73;;;13.10;99.90;;;;;;5034951;28;20218;-84
2023/07/28 04:28:29;;;;;;;2.95;1.88;;;13.10;99.90;;;;;;5020567;28;20192;-85
2023/07/28 04:31:00;;;;;;;2.75;1.55;;;13.00;99.90;;;;;;5016497;28;20200;-84
2023/07/28 04:33:51;;;;;;;5.05;1.70;;;13.00;99.90;;;;;;5016114;28;20304;-84
2023/07/28 04:36:19;;;;;;;4.22;1.48;;;13.00;99.90;;;;;;5017336;28;20220;-84
2023/07/28 04:38:47;;;;;;;3.05;1.85;;;13.00;99.90;;;;;;5008493;28;20288;-84
2023/07/28 04:41:15;;;;;;;3.25;1.73;;;13.00;99.90;;;;;;5007874;28;20194;-84
2023/07/28 04:43:53;;;;;;;4.18;1.80;;;13.00;99.90;;;;;;5033040;28;20233;-84
2023/07/28 04:46:24;;;;;;;5.95;1.80;;;13.00;99.90;;;;;;5023706;28;20202;-84
2023/07/28 04:48:56;;;;;;;2.72;1.83;;;13.10;99.90;;;;;;5021966;28;20799;-84
2023/07/28 04:51:47;;;;;;;6.68;1.67;;;13.10;99.90;;;;;;5021118;28;20542;-84
2023/07/28 04:54:45;;;;;;;8.10;2.17;;;13.10;99.90;;;;;;4986306;28;20269;-85
2023/07/28 04:57:13;;;;;;;3.13;1.55;;;13.20;99.90;;;;;;5020853;28;20689;-84
2023/07/28 04:59:43;;;;;;;6.35;1.50;;;13.20;99.90;;;;;;5024506;28;20251;-85
2023/07/28 05:02:10;;;;;;;4.22;1.90;;;13.30;99.90;;;;;;5021188;28;20612;-85
2023/07/28 05:04:38;;;;;;;1.73;1.42;;;13.30;99.90;;;;;;5021758;28;20209;-84
2023/07/28 05:07:06;;;;;;;4.22;1.80;;;13.30;99.90;;;;;;5005563;28;20296;-84
2023/07/28 05:09:33;;;;;;;3.47;1.35;;;13.40;99.90;;;;;;5023884;28;20197;-84
2023/07/28 05:12:01;;;;;;;3.03;1.40;;;13.40;99.90;;;;;;5035028;28;20190;-85
2023/07/28 05:14:33;;;;;;;4.50;1.45;;;13.50;99.90;;;;;;5013488;28;20194;-84
2023/07/28 05:17:01;;;;;;;4.30;1.33;;;13.50;99.90;;;;;;5023858;28;20624;-85
2023/07/28 05:19:44;;;;;;;2.88;1.30;;;13.50;99.90;;;;;;5023973;28;20189;-84
2023/07/28 05:22:31;;;;;;;4.63;1.58;;;13.60;99.90;;;;;;5030173;28;20314;-85
2023/07/28 05:24:59;;;;;;;2.92;1.52;;;13.70;99.90;;;;;;5024257;28;20691;-85
2023/07/28 05:27:29;;;;;;;4.78;1.58;;;13.70;99.90;;;;;;5030188;28;20203;-84
2023/07/28 05:29:57;;;;;;;3.17;1.40;;;14.00;99.90;;;;;;5023497;28;20189;-84
2023/07/28 05:32:25;;;;;;;4.57;1.38;;;14.20;99.90;;;;;;5024690;28;20684;-84
2023/07/28 05:35:07;;;;;;;4.63;1.50;;;14.20;99.90;;;;;;5028142;28;20194;-84
2023/07/28 05:37:35;;;;;;;3.72;1.30;;;14.20;99.90;;;;;;5022692;28;20686;-85
2023/07/28 05:40:03;;;;;;;5.32;1.60;;;14.30;99.90;;;;;;5015312;28;20190;-84
2023/07/28 05:42:34;;;;;;;5.10;1.52;;;14.40;99.90;;;;;;5006728;28;20190;-84
2023/07/28 05:45:03;;;;;;;3.20;1.23;;;14.60;99.90;;;;;;5022136;28;20225;-84
2023/07/28 05:47:30;;;;;;;3.63;1.50;;;14.80;99.90;;;;;;5029970;28;20201;-84
2023/07/28 05:49:59;;;;;;;7.88;1.30;;;14.90;99.90;;;;;;5024931;28;20182;-84
2023/07/28 05:52:31;;;;;;;2.33;1.27;;;15.00;99.90;;;;;;5021047;28;20193;-85
2023/07/28 05:54:59;;;;;;;4.20;1.20;;;14.80;99.90;;;;;;5024776;28;20598;-84
2023/07/28 05:57:27;;;;;;;2.97;1.50;;;14.80;99.90;;;;;;5025513;27;20202;-84
2023/07/28 05:59:55;;;;;;;4.32;1.40;;;15.10;99.90;;;;;;5022948;28;20210;-84
2023/07/28 06:02:23;;;;;;;5.55;1.38;;;15.30;99.90;;;;;;5022827;28;20193;-83
2023/07/28 06:04:56;;;;;;;2.28;1.13;;;15.20;99.90;;;;;;5033231;28;20578;-84
2023/07/28 06:07:26;;;;;;;4.90;1.40;;;15.20;99.90;;;;;;5025256;28;20182;-83
2023/07/28 06:09:55;;;;;;;8.45;1.80;;;15.20;99.90;;;;;;5023412;28;20211;-84
2023/07/28 06:12:24;;;;;;;4.53;1.75;;;15.30;99.90;;;;;;5024215;28;20214;-84
2023/07/28 06:14:52;;;;;;;7.25;1.95;;;15.10;99.90;;;;;;5024197;28;20201;-84
2023/07/28 06:17:19;;;;;;;3.08;1.70;;;15.30;99.90;;;;;;5026072;28;20663;-86
2023/07/28 06:19:47;;;;;;;4.55;1.10;;;15.40;99.90;;;;;;5025441;28;20194;-85
2023/07/28 06:22:15;;;;;;;3.78;1.20;;;15.20;99.90;;;;;;5025514;28;20194;-85
2023/07/28 06:24:46;;;;;;;3.00;1.17;;;15.30;99.90;;;;;;5022943;28;20194;-84
2023/07/28 06:27:15;;;;;;;4.18;1.25;;;15.40;99.90;;;;;;5035859;27;20206;-84
2023/07/28 06:29:43;;;;;;;2.38;1.13;;;15.70;99.90;;;;;;5026096;28;20198;-84
2023/07/28 06:32:11;;;;;;;4.80;1.38;;;15.80;99.90;;;;;;5026212;28;20189;-84
2023/07/28 06:34:38;;;;;;;2.17;1.33;;;15.70;99.90;;;;;;5026350;28;20190;-84
2023/07/28 06:37:07;;;;;;;3.92;1.20;;;15.70;99.90;;;;;;5027586;28;20532;-84
2023/07/28 06:39:35;;;;;;;3.30;1.30;;;15.80;99.90;;;;;;5025707;28;20178;-84
2023/07/28 06:42:03;;;;;;;2.63;1.17;;;15.80;99.90;;;;;;5025658;28;20193;-84
2023/07/28 06:44:31;;;;;;;1.83;1.20;;;15.80;99.90;;;;;;5025323;28;20233;-84
2023/07/28 06:47:00;;;;;;;3.42;1.15;;;15.80;99.90;;;;;;5025113;28;20237;-84
2023/07/28 06:49:29;;;;;;;4.32;1.30;;;15.70;99.90;;;;;;5024432;28;20190;-84
2023/07/28 06:52:03;;;;;;;4.50;1.10;;;15.90;99.90;;;;;;5025894;28;20181;-84
2023/07/28 06:54:31;;;;;;;3.40;1.10;;;16.10;99.90;;;;;;5025532;28;20606;-84
2023/07/28 06:56:59;;;;;;;3.72;1.15;;;16.20;99.90;;;;;;5026068;28;20683;-84
2023/07/28 06:59:27;;;;;;;2.78;1.05;;;16.20;99.90;;;;;;5006447;28;20194;-84
2023/07/28 07:01:55;;;;;;;3.63;1.20;;;16.20;99.90;;;;;;5026895;28;20281;-83
2023/07/28 07:04:23;;;;;;;1.90;1.00;;;16.30;99.90;;;;;;5024596;28;20272;-84
2023/07/28 07:06:51;;;;;;;4.55;1.08;;;16.30;99.90;;;;;;5021206;28;20217;-84
2023/07/28 07:09:18;;;;;;;4.85;1.27;;;16.30;99.90;;;;;;5024233;28;20227;-84
2023/07/28 07:11:46;;;;;;;4.80;1.08;;;16.30;99.90;;;;;;5024659;28;20221;-84
2023/07/28 07:14:14;;;;;;;3.25;1.20;;;16.20;99.90;;;;;;5042208;27;20182;-85
2023/07/28 07:16:42;;;;;;;5.40;1.30;;;16.20;99.90;;;;;;5026468;28;20193;-84
2023/07/28 07:19:11;;;;;;;3.28;1.05;;;16.70;99.90;;;;;;5025449;28;20225;-83
2023/07/28 07:21:41;;;;;;;4.85;1.23;;;16.60;99.90;;;;;;5018925;28;20182;-84
2023/07/28 07:24:10;;;;;;;2.20;0.98;;;16.70;99.90;;;;;;5024613;27;20195;-84
2023/07/28 07:26:38;;;;;;;3.58;1.10;;;16.60;99.90;;;;;;5018974;28;20202;-84
2023/07/28 07:29:06;;;;;;;3.45;1.20;;;16.60;99.90;;;;;;5027466;28;20202;-84
2023/07/28 07:31:34;;;;;;;5.10;1.30;;;16.60;99.90;;;;;;5023873;27;20190;-83
2023/07/28 07:34:04;;;;;;;3.97;1.35;;;16.60;99.90;;;;;;5026795;28;20735;-83
2023/07/28 07:36:32;;;;;;;5.95;1.20;;;16.70;99.90;;;;;;5019669;28;20234;-84
2023/07/28 07:39:01;;;;;;;2.67;1.10;;;16.70;99.90;;;;;;5022481;28;20259;-83
2023/07/28 07:41:29;;;;;;;7.82;1.40;;;16.70;99.90;;;;;;5025639;28;20277;-83
2023/07/28 07:43:57;;;;;;;3.97;1.33;;;16.70;99.90;;;;;;5016051;28;20246;-84
2023/07/28 07:46:24;;;;;;;3.67;1.10;;;16.70;99.90;;;;;;5022611;28;20206;-83
2023/07/28 07:48:52;;;;;;;2.50;1.17;;;16.60;99.90;;;;;;5025465;28;20265;-84
2023/07/28 07:51:20;;;;;;;2.85;0.95;;;16.60;99.90;;;;;;5026736;28;20219;-83
2023/07/28 07:53:48;;;;;;;3.05;1.08;;;16.70;99.90;;;;;;5026904;28;20194;-83
2023/07/28 07:56:16;;;;;;;5.28;1.30;;;16.70;99.90;;;;;;5025448;28;20197;-83
2023/07/28 07:58:43;;;;;;;5.45;1.20;;;16.90;99.90;;;;;;5031231;28;20186;-82
2023/07/28 08:01:11;;;;;;;3.05;1.20;;;16.80;99.90;;;;;;5033564;28;20221;-83
2023/07/28 08:03:39;;;;;;;2.13;1.23;;;16.80;99.90;;;;;;5033045;28;20190;-84
2023/07/28 08:06:09;;;;;;;3.58;1.45;;;16.80;99.90;;;;;;5026358;28;20206;-83
2023/07/28 08:08:40;;;;;;;4.75;1.10;;;17.10;99.90;;;;;;5024470;28;20277;-83
2023/07/28 08:11:11;;;;;;;3.67;1.27;;;17.40;99.90;;;;;;5017986;28;20755;-84
2023/07/28 08:13:39;;;;;;;5.70;1.60;;;17.30;99.90;;;;;;5009046;28;20182;-83
2023/07/28 08:16:07;;;;;;;4.07;1.25;;;17.20;99.90;;;;;;5021327;28;20202;-83
2023/07/28 08:18:35;;;;;;;5.20;1.30;;;17.10;99.90;;;;;;5024853;28;20194;-84
2023/07/28 08:21:03;;;;;;;4.28;1.05;;;17.10;99.90;;;;;;5040905;28;20695;-84
2023/07/28 08:23:30;;;;;;;1.75;1.20;;;17.20;99.90;;;;;;5033404;28;20201;-83
2023/07/28 08:25:58;;;;;;;1.95;1.10;;;17.40;99.90;;;;;;5025122;28;20267;-83
2023/07/28 08:28:26;;;;;;;2.25;1.35;;;17.40;99.90;;;;;;5023620;28;20190;-83
2023/07/28 08:30:56;;;;;;;3.78;1.38;;;17.20;99.90;;;;;;5026341;28;20221;-82
2023/07/28 08:33:24;;;;;;;3.15;1.45;;;17.00;99.90;;;;;;5024709;28;20699;-84
2023/07/28 08:35:51;;;;;;;4.90;1.63;;;16.80;99.90;;;;;;5025295;28;20197;-83
2023/07/28 08:38:19;;;;;;;4.82;1.45;;;16.70;99.90;;;;;;5025509;28;20190;-83
2023/07/28 08:40:47;;;;;;;3.70;1.58;;;16.70;99.90;;;;;;5020449;28;20204;-84
2023/07/28 08:43:14;;;;;;;5.75;1.63;;;16.70;99.90;;;;;;5025667;28;20196;-84
2023/07/28 08:45:42;;;;;;;2.80;1.30;;;16.80;99.90;;;;;;5031967;28;20217;-83
2023/07/28 08:48:10;;;;;;;3.47;1.40;;;17.00;99.90;;;;;;5025915;28;20201;-84
2023/07/28 08:50:40;;;;;;;4.20;1.27;;;17.20;99.90;;;;;;5039541;28;20198;-84
2023/07/28 08:53:07;;;;;;;2.45;1.35;;;17.80;99.90;;;;;;5006355;28;20194;-83
2023/07/28 08:55:35;;;;;;;3.22;1.50;;;17.90;99.90;;;;;;5025853;28;20194;-83
2023/07/28 08:58:24;;;;;;;2.53;1.42;;;18.20;99.90;;;;;;5022308;28;20201;-83
2023/07/28 09:00:53;;;;;;;3.47;1.40;;;17.80;99.90;;;;;;5016225;28;20684;-83
2023/07/28 09:03:21;;;;;;;1.88;1.10;;;17.50;99.90;;;;;;5024149;28;20286;-83
2023/07/28 09:10:03;;;;;;;4.65;1.25;;;17.40;99.90;;;;;;5019496;28;20180;-83
2023/07/28 09:12:34;;;;;;;3.47;1.63;;;17.60;99.90;;;;;;5027179;28;20204;-83
2023/07/28 09:15:02;;;;;;;2.25;1.35;;;18.00;99.90;;;;;;5020434;28;20190;-84
2023/07/28 09:17:41;;;;;;;3.58;1.35;;;18.00;99.90;;;;;;5019245;28;20198;-84
2023/07/28 09:20:13;;;;;;;3.63;1.27;;;18.40;99.90;;;;;;5009926;28;20197;-84
2023/07/28 09:22:43;;;;;;;2.78;1.50;;;18.60;99.90;;;;;;5020598;28;20197;-83
2023/07/28 09:25:17;;;;;;;4.80;1.30;;;18.50;99.90;;;;;;5018273;27;20293;-84
2023/07/28 09:27:52;;;;;;;5.47;1.30;;;18.30;99.90;;;;;;5020525;28;20836;-84
2023/07/28 09:30:21;;;;;;;3.92;1.05;;;18.50;99.90;;;;;;5018958;28;20182;-84
2023/07/28 09:32:54;;;;;;;3.15;1.23;;;18.50;99.90;;;;;;5019199;27;20216;-83
2023/07/28 09:35:22;;;;;;;5.78;1.25;;;18.50;99.90;;;;;;5018704;28;20231;-83
2023/07/28 09:37:54;;;;;;;5.07;1.30;;;18.50;99.90;;;;;;5020753;28;20189;-84
2023/07/28 09:40:23;;;;;;;3.25;1.20;;;18.40;99.90;;;;;;5020053;28;20550;-84
2023/07/28 09:42:54;;;;;;;3.47;1.10;;;18.60;99.90;;;;;;5020009;28;20188;-84
2023/07/28 09:45:23;;;;;;;6.82;1.30;;;18.50;99.90;;;;;;5015386;28;20225;-83
2023/07/28 09:47:58;;;;;;;2.17;1.27;;;18.20;99.90;;;;;;5021365;28;20254;-84
2023/07/28 09:50:29;;;;;;;2.80;1.15;;;18.20;99.90;;;;;;5021266;28;20205;-83
2023/07/28 09:53:00;;;;;;;2.80;1.30;;;18.30;99.90;;;;;;5023330;28;20639;-84
2023/07/28 09:55:29;;;;;;;2.90;1.00;;;18.50;99.90;;;;;;5023040;28;20189;-84
2023/07/28 09:58:01;;;;;;;1.75;1.08;;;18.50;99.90;;;;;;5020842;28;20197;-83
2023/07/28 10:00:29;;;;;;;4.47;1.20;;;18.70;99.90;;;;;;5025263;28;20243;-83
2023/07/28 10:02:59;;;;;;;4.88;1.20;;;18.90;99.90;;;;;;5039728;28;20186;-84
2023/07/28 10:05:27;;;;;;;2.17;1.05;;;18.60;99.90;;;;;;5024515;27;20664;-84
2023/07/28 10:07:55;;;;;;;3.95;1.15;;;18.50;99.90;;;;;;5025556;28;20217;-84
2023/07/28 10:10:26;;;;;;;2.88;1.27;;;18.90;99.90;;;;;;5025383;28;20243;-84
2023/07/28 10:12:57;;;;;;;4.00;1.20;;;19.00;99.90;;;;;;5023269;28;20210;-83
2023/07/28 10:15:30;;;;;;;2.67;1.40;;;19.10;99.90;;;;;;5024464;28;20201;-85
2023/07/28 10:17:59;;;;;;;1.60;0.80;;;19.00;99.90;;;;;;5024401;28;20194;-84
2023/07/28 10:20:35;;;;;;;2.55;1.15;;;19.10;99.90;;;;;;5024683;28;20229;-83
2023/07/28 10:23:11;;;;;;;2.05;0.90;;;19.30;99.90;;;;;;5024148;28;20188;-84
2023/07/28 10:25:40;;;;;;;4.05;0.93;;;19.50;99.90;;;;;;5024206;28;20998;-84
2023/07/28 10:28:34;;;;;;;2.38;1.20;;;19.40;99.90;;;;;;5024024;27;20795;-84
2023/07/28 10:31:11;;;;;;;1.90;0.98;;;19.50;99.90;;;;;;5019919;28;20419;-84
2023/07/28 10:33:48;;;;;;;3.13;1.10;;;19.60;99.90;;;;;;5021419;28;20277;-84
2023/07/28 10:36:38;;;;;;;2.17;0.90;;;19.50;99.90;;;;;;5024547;28;20213;-85
2023/07/28 10:39:14;;;;;;;2.25;1.15;;;19.20;99.90;;;;;;5020625;28;20186;-84
2023/07/28 10:42:06;;;;;;;1.55;0.93;;;18.80;99.90;;;;;;5016162;28;20187;-84
2023/07/28 10:44:34;;;;;;;2.60;1.13;;;18.90;99.90;;;;;;4992992;28;20226;-84
2023/07/28 10:47:07;;;;;;;2.10;1.05;;;19.20;99.90;;;;;;5022693;28;20287;-84
2023/07/28 10:49:35;;;;;;;3.10;1.10;;;19.50;99.90;;;;;;5023537;28;20982;-84
2023/07/28 10:52:02;;;;;;;3.25;1.25;;;19.70;99.90;;;;;;5023913;28;20182;-84
2023/07/28 10:54:34;;;;;;;1.67;1.00;;;19.60;99.90;;;;;;5024492;28;20205;-85
2023/07/28 10:57:03;;;;;;;3.17;1.15;;;19.20;99.90;;;;;;5024232;28;20268;-84
2023/07/28 10:59:35;;;;;;;2.70;1.20;;;19.20;99.90;;;;;;5022298;28;20182;-83
2023/07/28 11:02:03;;;;;;;4.68;1.17;;;19.10;99.90;;;;;;5022894;28;20190;-84
2023/07/28 11:04:32;;;;;;;5.10;1.00;;;18.90;99.90;;;;;;5023771;28;20218;-85
2023/07/28 11:07:01;;;;;;;5.88;1.27;;;18.80;99.90;;;;;;5023385;28;20230;-83
2023/07/28 11:09:30;;;;;;;4.32;1.23;;;18.90;99.90;;;;;;5022542;28;20190;-84
2023/07/28 11:11:59;;;;;;;2.28;1.33;;;19.40;99.90;;;;;;5022675;28;20198;-82
2023/07/28 11:14:26;;;;;;;2.40;0.90;;;19.50;99.90;;;;;;5023511;28;20538;-82
2023/07/28 11:16:56;;;;;;;2.35;1.05;;;19.50;99.90;;;;;;5022884;28;20209;-83
2023/07/28 11:19:26;;;;;;;3.53;1.27;;;19.50;99.90;;;;;;5022343;28;20692;-83
2023/07/28 11:21:55;;;;;;;2.42;1.02;;;19.70;99.90;;;;;;5021171;28;20217;-81
2023/07/28 11:24:23;;;;;;;2.53;1.40;;;19.70;99.90;;;;;;5018913;28;20250;-82
2023/07/28 11:26:53;;;;;;;2.33;1.15;;;19.60;99.90;;;;;;5021711;28;20663;-82
2023/07/28 11:29:23;;;;;;;4.80;1.30;;;19.50;99.90;;;;;;5022471;28;20194;-82
2023/07/28 11:31:53;;;;;;;4.05;1.00;;;19.30;99.90;;;;;;5020944;28;20255;-82
2023/07/28 11:34:22;;;;;;;2.17;1.20;;;19.20;99.90;;;;;;5022239;28;20643;-82
2023/07/28 11:36:53;;;;;;;1.73;1.05;;;19.20;99.90;;;;;;5018951;28;20186;-82
2023/07/28 11:39:21;;;;;;;6.45;1.55;;;19.60;99.90;;;;;;5019313;28;20245;-83
2023/07/28 11:41:53;;;;;;;4.82;1.38;;;19.90;99.90;;;;;;5017330;28;20275;-82
2023/07/28 11:44:24;;;;;;;3.58;1.35;;;19.90;99.90;;;;;;5015122;28;20286;-83
2023/07/28 11:46:55;;;;;;;4.43;1.23;;;20.00;99.90;;;;;;5018366;28;20202;-83
2023/07/28 11:49:24;;;;;;;1.70;1.13;;;20.20;99.90;;;;;;5017484;28;20520;-82
2023/07/28 11:51:54;;;;;;;4.53;1.35;;;20.10;99.90;;;;;;5000472;28;20195;-82
2023/07/28 11:54:25;;;;;;;2.42;1.25;;;19.80;99.90;;;;;;5016536;28;20182;-83
2023/07/28 11:56:56;;;;;;;4.90;1.30;;;20.10;99.90;;;;;;5020398;28;20286;-83
2023/07/28 11:59:25;;;;;;;5.40;1.35;;;20.40;99.90;;;;;;5018043;28;20189;-82
2023/07/28 12:02:02;;;;;;;2.70;1.38;;;20.50;99.90;;;;;;5012668;28;20281;-83
2023/07/28 12:04:36;;;;;;;2.65;1.27;;;20.80;99.90;;;;;;5022792;28;20186;-83
2023/07/28 12:07:11;;;;;;;2.35;1.10;;;21.20;99.90;;;;;;5022156;28;20213;-83
2023/07/28 12:09:46;;;;;;;3.72;1.30;;;21.00;99.90;;;;;;5020226;28;20644;-83
2023/07/28 12:12:17;;;;;;;3.47;1.85;;;20.70;99.90;;;;;;5030188;28;20197;-82
2023/07/28 12:14:51;;;;;;;4.05;1.45;;;20.10;99.90;;;;;;5035476;28;20243;-83
2023/07/28 12:17:39;;;;;;;3.60;1.48;;;19.70;99.90;;;;;;5020322;28;20190;-82
2023/07/28 12:20:10;;;;;;;5.22;1.52;;;19.40;99.90;;;;;;5014296;28;20198;-83
2023/07/28 12:22:45;;;;;;;6.70;1.60;;;19.20;99.90;;;;;;5014999;28;20199;-83
2023/07/28 12:25:14;;;;;;;3.20;1.25;;;19.00;99.90;;;;;;5017977;28;20280;-83
2023/07/28 12:27:42;;;;;;;2.85;1.23;;;19.10;99.90;;;;;;5020462;28;20212;-83
2023/07/28 12:30:10;;;;;;;2.70;1.38;;;19.10;99.90;;;;;;5019565;28;20182;-83
2023/07/28 12:32:41;;;;;;;3.05;1.35;;;19.10;99.90;;;;;;5022071;28;20284;-83
2023/07/28 12:35:34;;;;;;;3.70;1.67;;;19.10;99.90;;;;;;5017521;28;20186;-83
2023/07/28 12:38:05;;;;;;;2.80;1.20;;;19.20;99.90;;;;;;5021212;28;20182;-83
2023/07/28 12:40:36;;;;;;;3.38;1.27;;;19.20;99.90;;;;;;5021243;28;20200;-82
2023/07/28 12:43:07;;;;;;;3.03;1.30;;;19.10;99.90;;;;;;5023908;28;20288;-83
2023/07/28 12:45:35;;;;;;;3.75;1.40;;;19.20;99.90;;;;;;5020991;28;20308;-82
2023/07/28 12:48:05;;;;;;;4.65;1.33;;;19.30;99.90;;;;;;5021198;28;20228;-82
2023/07/28 12:50:34;;;;;;;3.22;1.50;;;19.80;99.90;;;;;;5019488;28;20182;-83
2023/07/28 12:53:04;;;;;;;7.22;1.63;;;20.40;99.90;;;;;;5020468;28;20183;-82
2023/07/28 12:55:43;;;;;;;3.22;1.40;;;20.80;99.90;;;;;;5017581;28;20565;-83
2023/07/28 12:58:15;;;;;;;4.22;1.48;;;20.80;99.90;;;;;;5020873;28;20205;-83
2023/07/28 13:00:47;;;;;;;4.20;1.45;;;20.80;99.90;;;;;;5020752;28;20188;-82
2023/07/28 13:03:24;;;;;;;3.65;1.30;;;20.70;99.90;;;;;;5019879;28;20189;-82
2023/07/28 13:06:02;;;;;;;4.70;1.45;;;20.50;99.90;;;;;;5020540;28;20739;-83